Time;durP1;ratioP1;P1;durP2;ratioP2;P2;SDS_P1;SDS_P2;PMS_P1;PMS_P2;Temp;Humidity;BMP_temperature;BMP_pressure;BME280_temperature;BME280_humidity;BME280_pressure;Samples;Min_cycle;Max_cycle;Signal;HPM_P1;HPM_P2
2021/08/28 00:01:49;;;;;;;;;;;;;;;13.75;94.30;101902.22;5074242;28;19924;-54
2021/08/28 00:04:17;;;;;;;;;;;;;;;13.69;94.93;101901.66;5056672;28;20371;-53
2021/08/28 00:06:44;;;;;;;;;;;;;;;13.72;94.99;101913.00;5074247;28;20341;-52
2021/08/28 00:09:11;;;;;;;;;;;;;;;13.60;95.95;101898.72;5074256;28;19931;-52
2021/08/28 00:11:37;;;;;;;;;;;;;;;13.60;96.08;101893.44;5074193;28;19974;-53
2021/08/28 00:14:04;;;;;;;;;;;;;;;13.62;96.06;101889.78;5074208;28;20432;-49
2021/08/28 00:16:30;;;;;;;;;;;;;;;13.63;96.16;101891.47;5073818;28;20436;-53
2021/08/28 00:18:57;;;;;;;;;;;;;;;13.66;96.26;101878.06;5074389;28;19947;-50
2021/08/28 00:21:24;;;;;;;;;;;;;;;13.68;96.23;101884.09;5073873;28;19925;-51
2021/08/28 00:23:50;;;;;;;;;;;;;;;13.72;96.32;101883.91;5073827;28;20379;-49
2021/08/28 00:26:17;;;;;;;;;;;;;;;13.75;96.43;101876.63;5055625;28;20023;-54
2021/08/28 00:28:44;;;;;;;;;;;;;;;13.78;96.61;101876.44;5073792;28;20379;-54
2021/08/28 00:31:10;;;;;;;;;;;;;;;13.87;95.93;101875.03;5073632;28;19971;-53
2021/08/28 00:33:37;;;;;;;;;;;;;;;13.86;96.41;101868.03;5073780;28;19974;-51
2021/08/28 00:36:03;;;;;;;;;;;;;;;13.86;96.68;101873.31;5073889;28;19924;-53
2021/08/28 00:38:30;;;;;;;;;;;;;;;13.89;96.70;101873.13;5055900;28;19924;-51
2021/08/28 00:40:57;;;;;;;;;;;;;;;13.93;96.60;101866.69;5073908;28;20318;-51
2021/08/28 00:43:25;;;;;;;;;;;;;;;13.95;96.98;101871.91;5073394;28;19924;-51
2021/08/28 00:45:51;;;;;;;;;;;;;;;13.96;97.17;101869.16;5073289;28;20027;-50
2021/08/28 00:48:18;;;;;;;;;;;;;;;13.96;96.98;101869.16;5055752;28;19944;-53
2021/08/28 00:50:45;;;;;;;;;;;;;;;14.02;96.68;101876.69;5073221;28;20345;-45
2021/08/28 00:53:13;;;;;;;;;;;;;;;14.03;96.89;101870.47;5055471;28;19947;-54
2021/08/28 00:55:40;;;;;;;;;;;;;;;14.02;97.25;101874.03;5073191;28;20382;-52
2021/08/28 00:58:07;;;;;;;;;;;;;;;14.01;96.99;101871.50;5072739;28;19931;-45
2021/08/28 01:00:38;;;;;;;;;;;;;;;14.03;96.84;101875.75;5073035;28;19956;-45
2021/08/28 01:03:05;;;;;;;;;;;;;;;14.14;96.38;101877.72;5055556;28;19924;-46
2021/08/28 01:05:36;;;;;;;;;;;;;;;14.19;95.81;101886.22;5055318;28;19929;-47
2021/08/28 01:08:13;;;;;;;;;;;;;;;14.17;95.88;101884.59;5073018;28;19924;-45
2021/08/28 01:10:42;;;;;;;;;;;;;;;14.23;96.10;101888.66;5072672;28;19925;-45
2021/08/28 01:13:11;;;;;;;;;;;;;;;14.19;95.84;101891.50;5072702;28;20356;-45
2021/08/28 01:15:38;;;;;;;;;;;;;;;14.17;96.07;101881.97;5055419;28;19986;-45
2021/08/28 01:18:08;;;;;;;;;;;;;;;14.14;96.31;101882.16;5073044;28;19925;-46
2021/08/28 01:20:54;;;;;;;;;;;;;;;14.19;95.60;101878.28;5055331;28;19932;-52
2021/08/28 01:23:21;;;;;;;;;;;;;;;14.14;96.18;101882.16;5055050;28;19942;-51
2021/08/28 01:25:47;;;;;;;;;;;;;;;14.12;96.21;101879.59;5038589;28;19925;-50
2021/08/28 01:28:14;;;;;;;;;;;;;;;14.11;96.48;101877.91;5054318;28;19970;-50
2021/08/28 01:30:41;;;;;;;;;;;;;;;14.10;96.58;101875.38;5055025;28;19970;-52
2021/08/28 01:33:08;;;;;;;;;;;;;;;14.12;96.25;101884.03;5073057;28;19932;-52
2021/08/28 01:35:35;;;;;;;;;;;;;;;14.11;96.81;101877.03;5055021;28;20399;-53
2021/08/28 01:38:01;;;;;;;;;;;;;;;14.20;96.48;101889.69;5055013;28;20350;-51
2021/08/28 01:40:28;;;;;;;;;;;;;;;14.19;96.66;101880.91;5038876;28;19924;-54
2021/08/28 01:42:55;;;;;;;;;;;;;;;14.17;97.27;101888.09;5038899;28;19934;-52
2021/08/28 01:45:22;;;;;;;;;;;;;;;14.21;97.02;101883.47;5072897;28;20395;-53
2021/08/28 01:47:49;;;;;;;;;;;;;;;14.25;96.64;101884.97;5055007;28;19924;-52
2021/08/28 01:50:17;;;;;;;;;;;;;;;14.24;96.72;101888.56;5054798;28;19935;-50
2021/08/28 01:52:43;;;;;;;;;;;;;;;14.29;96.97;101882.94;5055057;28;19970;-49
2021/08/28 01:55:10;;;;;;;;;;;;;;;14.30;96.70;101882.00;5054918;28;19928;-53
2021/08/28 01:57:37;;;;;;;;;;;;;;;14.33;96.21;101877.38;5072647;28;19925;-49
2021/08/28 02:00:04;;;;;;;;;;;;;;;14.35;96.02;101871.97;5054638;28;19952;-50
2021/08/28 02:02:30;;;;;;;;;;;;;;;14.29;96.93;101870.59;5054743;28;20026;-50
2021/08/28 02:04:57;;;;;;;;;;;;;;;14.29;96.24;101864.44;5072613;28;20387;-50
2021/08/28 02:07:39;;;;;;;;;;;;;;;14.26;96.45;101860.22;5072603;28;20394;-53
2021/08/28 02:10:14;;;;;;;;;;;;;;;14.30;96.18;101869.66;5054926;28;19970;-54
2021/08/28 02:12:44;;;;;;;;;;;;;;;14.31;96.20;101866.03;5054959;28;19924;-53
2021/08/28 02:15:11;;;;;;;;;;;;;;;14.37;96.15;101875.41;5054435;28;19925;-51
2021/08/28 02:17:41;;;;;;;;;;;;;;;14.35;96.25;101878.13;5071963;28;19931;-53
2021/08/28 02:20:08;;;;;;;;;;;;;;;14.34;96.28;101875.56;5072038;28;19925;-52
2021/08/28 02:22:38;;;;;;;;;;;;;;;14.35;96.42;101883.41;5072526;28;20984;-52
2021/08/28 02:25:06;;;;;;;;;;;;;;;14.35;96.80;101890.50;5054670;28;19924;-51
2021/08/28 02:27:38;;;;;;;;;;;;;;;14.28;97.15;101892.69;5072259;28;20607;-53
2021/08/28 02:30:06;;;;;;;;;;;;;;;14.28;97.04;101882.13;5072730;28;19924;-53
2021/08/28 02:32:32;;;;;;;;;;;;;;;14.28;97.18;101874.19;5037943;28;20177;-52
2021/08/28 02:34:59;;;;;;;;;;;;;;;14.29;97.18;101872.38;5054443;28;19973;-53
2021/08/28 02:37:26;;;;;;;;;;;;;;;14.24;97.62;101867.38;5037837;28;19966;-53
2021/08/28 02:39:53;;;;;;;;;;;;;;;14.19;98.19;101866.81;5057493;28;19929;-52
2021/08/28 02:42:19;;;;;;;;;;;;;;;14.23;98.01;101863.03;5058164;28;19929;-51
2021/08/28 02:44:46;;;;;;;;;;;;;;;14.22;98.46;101871.06;5075993;28;19959;-50
2021/08/28 02:47:13;;;;;;;;;;;;;;;14.22;97.90;101874.59;5075945;28;19929;-52
2021/08/28 02:49:39;;;;;;;;;;;;;;;14.29;97.81;101875.00;5054524;28;19929;-50
2021/08/28 02:52:06;;;;;;;;;;;;;;;14.28;98.23;101884.75;5055730;28;19970;-53
2021/08/28 02:54:33;;;;;;;;;;;;;;;14.31;98.12;101876.63;5054400;28;20581;-50
2021/08/28 02:56:59;;;;;;;;;;;;;;;14.32;98.66;101878.31;5070912;28;19963;-52
2021/08/28 02:59:26;;;;;;;;;;;;;;;14.35;98.26;101882.56;5070863;28;19989;-47
2021/08/28 03:01:53;;;;;;;;;;;;;;;14.36;98.50;101877.16;5055701;28;19933;-46
2021/08/28 03:04:20;;;;;;;;;;;;;;;14.37;98.29;101876.22;5054642;28;19929;-49
2021/08/28 03:06:47;;;;;;;;;;;;;;;14.43;98.38;101876.78;5054337;28;20280;-48
2021/08/28 03:09:15;;;;;;;;;;;;;;;14.42;98.66;101877.72;5070957;28;20273;-48
2021/08/28 03:11:41;;;;;;;;;;;;;;;14.46;99.05;101866.84;5054244;28;19925;-50
2021/08/28 03:14:08;;;;;;;;;;;;;;;14.51;98.95;101871.84;5055477;28;19924;-47
2021/08/28 03:16:35;;;;;;;;;;;;;;;14.56;99.06;101864.44;5055210;28;20322;-47
2021/08/28 03:19:01;;;;;;;;;;;;;;;14.53;99.26;101865.50;5070291;28;19925;-45
2021/08/28 03:21:28;;;;;;;;;;;;;;;14.56;98.89;101869.75;5070464;28;19925;-43
2021/08/28 03:23:58;;;;;;;;;;;;;;;14.65;99.20;101868.31;5070431;28;20453;-51
2021/08/28 03:26:44;;;;;;;;;;;;;;;14.64;98.85;101858.66;5055241;28;19979;-48
2021/08/28 03:29:10;;;;;;;;;;;;;;;14.67;98.60;101859.31;5070426;28;19990;-50
2021/08/28 03:31:37;;;;;;;;;;;;;;;14.70;98.78;101868.84;5070282;28;19932;-52
2021/08/28 03:34:03;;;;;;;;;;;;;;;14.78;98.53;101860.38;5070329;28;19932;-52
2021/08/28 03:36:30;;;;;;;;;;;;;;;14.78;98.26;101863.03;5070152;28;19924;-50
2021/08/28 03:38:57;;;;;;;;;;;;;;;14.79;97.79;101852.38;5054542;28;19932;-48
2021/08/28 03:41:23;;;;;;;;;;;;;;;14.79;97.96;101856.78;5054432;28;19928;-49
2021/08/28 03:43:50;;;;;;;;;;;;;;;14.80;98.39;101854.03;5069932;28;19931;-48
2021/08/28 03:46:16;;;;;;;;;;;;;;;14.79;98.43;101856.78;5054809;28;19928;-52
2021/08/28 03:48:43;;;;;;;;;;;;;;;14.81;98.47;101854.91;5060540;28;19925;-50
2021/08/28 03:51:10;;;;;;;;;;;;;;;14.85;98.36;101862.53;5074153;28;19964;-52
2021/08/28 03:53:36;;;;;;;;;;;;;;;14.85;98.82;101862.53;5074780;28;19924;-53
2021/08/28 03:56:04;;;;;;;;;;;;;;;14.81;98.88;101860.19;5074082;28;19982;-53
2021/08/28 03:58:30;;;;;;;;;;;;;;;14.82;98.79;101857.44;5073817;28;19924;-52
2021/08/28 04:00:57;;;;;;;;;;;;;;;14.77;99.16;101851.59;5074366;28;20286;-50
2021/08/28 04:03:24;;;;;;;;;;;;;;;14.80;99.69;101859.34;5074238;28;19924;-52
2021/08/28 04:05:51;;;;;;;;;;;;;;;14.86;98.79;101858.06;5056522;28;20391;-49
2021/08/28 04:08:18;;;;;;;;;;;;;;;14.86;99.21;101866.00;5074475;28;20384;-52
2021/08/28 04:10:45;;;;;;;;;;;;;;;14.85;99.43;101867.00;5074275;28;19928;-48
2021/08/28 04:13:11;;;;;;;;;;;;;;;14.88;99.40;101856.19;5074217;28;19925;-51
2021/08/28 04:15:38;;;;;;;;;;;;;;;14.87;99.10;101857.13;5074107;28;19967;-52
2021/08/28 04:18:05;;;;;;;;;;;;;;;14.86;99.18;101856.28;5074312;28;19924;-50
2021/08/28 04:20:31;;;;;;;;;;;;;;;14.91;98.29;101871.03;5074104;28;19924;-48
2021/08/28 04:22:58;;;;;;;;;;;;;;;14.92;98.25;101868.25;5074052;28;20379;-52
2021/08/28 04:25:25;;;;;;;;;;;;;;;14.90;98.31;101870.16;5056201;28;19928;-52
2021/08/28 04:27:52;;;;;;;;;;;;;;;14.81;98.55;101870.78;5073968;28;19924;-51
2021/08/28 04:30:18;;;;;;;;;;;;;;;14.88;98.48;101877.38;5074370;28;20022;-50
2021/08/28 04:32:45;;;;;;;;;;;;;;;14.80;98.61;101871.75;5073749;28;20023;-51
2021/08/28 04:35:12;;;;;;;;;;;;;;;14.80;98.50;101863.78;5073814;28;19978;-51
2021/08/28 04:37:38;;;;;;;;;;;;;;;14.81;97.94;101852.25;5073757;28;19924;-49
2021/08/28 04:40:05;;;;;;;;;;;;;;;14.80;98.01;101858.50;5056101;28;20343;-52
2021/08/28 04:42:32;;;;;;;;;;;;;;;14.74;98.21;101853.59;5073349;28;19949;-49
2021/08/28 04:44:58;;;;;;;;;;;;;;;14.75;98.15;101864.13;5073449;28;20442;-50
2021/08/28 04:47:25;;;;;;;;;;;;;;;14.75;97.80;101865.91;5060890;28;19924;-49
2021/08/28 04:49:51;;;;;;;;;;;;;;;14.72;97.87;101866.09;5070987;28;19947;-49
2021/08/28 04:52:18;;;;;;;;;;;;;;;14.72;98.08;101866.09;5073625;28;19924;-51
2021/08/28 04:54:45;;;;;;;;;;;;;;;14.74;98.07;101865.06;5073301;28;19925;-51
2021/08/28 04:57:11;;;;;;;;;;;;;;;14.70;98.01;101861.75;5073395;28;19925;-49
2021/08/28 04:59:38;;;;;;;;;;;;;;;14.70;98.15;101871.50;5073376;28;20440;-51
2021/08/28 05:02:05;;;;;;;;;;;;;;;14.72;97.68;101869.59;5072582;28;19925;-50
2021/08/28 05:04:32;;;;;;;;;;;;;;;14.72;98.11;101866.09;5056166;28;20387;-50
2021/08/28 05:06:58;;;;;;;;;;;;;;;14.74;98.27;101864.19;5073209;28;19932;-50
2021/08/28 05:09:25;;;;;;;;;;;;;;;14.84;98.10;101876.72;5073145;28;19924;-52
2021/08/28 05:11:51;;;;;;;;;;;;;;;14.79;97.74;101877.97;5073071;28;20281;-53
2021/08/28 05:14:20;;;;;;;;;;;;;;;14.83;97.95;101879.47;5055931;28;20015;-49
2021/08/28 05:16:47;;;;;;;;;;;;;;;14.78;98.28;101881.56;5073159;28;19925;-51
2021/08/28 05:19:14;;;;;;;;;;;;;;;14.83;98.08;101879.47;5073025;28;19964;-52
2021/08/28 05:21:40;;;;;;;;;;;;;;;14.81;98.04;101882.22;5072912;28;19928;-52
2021/08/28 05:24:07;;;;;;;;;;;;;;;14.85;98.37;101885.53;5073087;28;19924;-54
2021/08/28 05:26:34;;;;;;;;;;;;;;;14.85;97.97;101881.06;5072777;28;20379;-55
2021/08/28 05:29:00;;;;;;;;;;;;;;;14.84;98.30;101887.31;5052280;28;19925;-51
2021/08/28 05:31:27;;;;;;;;;;;;;;;14.91;98.19;101894.84;5058436;28;19931;-53
2021/08/28 05:33:53;;;;;;;;;;;;;;;14.90;98.07;101891.34;5068858;28;20035;-53
2021/08/28 05:36:20;;;;;;;;;;;;;;;14.95;97.95;101888.41;5093130;28;19986;-50
2021/08/28 05:38:47;;;;;;;;;;;;;;;14.95;98.15;101889.25;5078602;28;19932;-52
2021/08/28 05:41:13;;;;;;;;;;;;;;;14.92;98.16;101899.22;5065290;28;19924;-49
2021/08/28 05:43:40;;;;;;;;;;;;;;;14.93;98.34;101885.00;5090638;28;19924;-53
2021/08/28 05:46:06;;;;;;;;;;;;;;;14.90;98.59;101887.84;5081969;28;19929;-52
2021/08/28 05:48:33;;;;;;;;;;;;;;;14.93;98.66;101891.16;5083693;28;19928;-50
2021/08/28 05:51:00;;;;;;;;;;;;;;;14.99;98.33;101885.44;5092893;28;20402;-50
2021/08/28 05:53:26;;;;;;;;;;;;;;;15.01;98.39;101878.25;5074519;28;19970;-50
2021/08/28 05:55:53;;;;;;;;;;;;;;;15.00;98.11;101883.66;5070075;28;19979;-49
2021/08/28 05:58:19;;;;;;;;;;;;;;;15.07;98.23;101889.38;5043053;28;19929;-52
2021/08/28 06:00:46;;;;;;;;;;;;;;;15.07;97.94;101884.09;5050660;28;20378;-49
2021/08/28 06:03:13;;;;;;;;;;;;;;;15.06;98.15;101887.69;5056739;28;19933;-48
2021/08/28 06:05:40;;;;;;;;;;;;;;;15.08;97.86;101881.31;5042427;28;19925;-48
2021/08/28 06:08:07;;;;;;;;;;;;;;;15.10;98.06;101895.31;5059940;28;19948;-50
2021/08/28 06:10:33;;;;;;;;;;;;;;;15.09;97.63;101895.41;5059485;28;19932;-52
2021/08/28 06:13:00;;;;;;;;;;;;;;;15.22;97.16;101904.22;5063959;28;19971;-51
2021/08/28 06:15:26;;;;;;;;;;;;;;;15.21;97.02;101898.09;5066410;28;19929;-52
2021/08/28 06:17:53;;;;;;;;;;;;;;;15.30;96.37;101901.91;5063165;28;19959;-53
2021/08/28 06:20:20;;;;;;;;;;;;;;;15.33;96.96;101908.81;5066728;28;19976;-53
2021/08/28 06:22:46;;;;;;;;;;;;;;;15.38;96.61;101912.00;5046562;28;20326;-50
2021/08/28 06:25:13;;;;;;;;;;;;;;;15.41;96.46;101911.78;5062439;28;19928;-53
2021/08/28 06:27:39;;;;;;;;;;;;;;;15.49;97.09;101911.25;5066746;28;20015;-52
2021/08/28 06:30:06;;;;;;;;;;;;;;;15.52;95.69;101922.47;5047292;28;19983;-51
2021/08/28 06:32:33;;;;;;;;;;;;;;;15.46;95.84;101919.38;5066822;28;20020;-52
2021/08/28 06:34:59;;;;;;;;;;;;;;;15.52;95.83;101911.03;5062671;28;19967;-48
2021/08/28 06:37:26;;;;;;;;;;;;;;;15.45;95.75;101913.25;5063021;28;19929;-52
2021/08/28 06:39:52;;;;;;;;;;;;;;;15.54;95.49;101909.09;5047924;28;19993;-52
2021/08/28 06:42:19;;;;;;;;;;;;;;;15.55;95.32;101906.34;5067401;28;20316;-51
2021/08/28 06:44:46;;;;;;;;;;;;;;;15.59;94.83;101914.94;5065382;28;19925;-50
2021/08/28 06:47:13;;;;;;;;;;;;;;;15.54;95.10;101909.09;5064057;28;19947;-52
2021/08/28 06:49:39;;;;;;;;;;;;;;;15.60;94.66;101911.34;5059252;28;20008;-52
2021/08/28 06:52:06;;;;;;;;;;;;;;;15.65;94.99;101908.34;5053069;28;19928;-54
2021/08/28 06:54:32;;;;;;;;;;;;;;;15.69;94.86;101908.06;5076683;28;20333;-54
2021/08/28 06:56:59;;;;;;;;;;;;;;;15.79;94.33;101910.03;5084497;28;19931;-51
2021/08/28 06:59:26;;;;;;;;;;;;;;;15.74;94.97;101912.19;5061851;28;19929;-53
2021/08/28 07:01:52;;;;;;;;;;;;;;;15.78;94.70;101913.66;5064882;28;20398;-54
2021/08/28 07:04:19;;;;;;;;;;;;;;;15.81;95.66;101921.44;5060155;28;19933;-53
2021/08/28 07:06:46;;;;;;;;;;;;;;;15.83;94.41;101916.88;5063712;28;20371;-54
2021/08/28 07:09:13;;;;;;;;;;;;;;;15.80;95.01;101917.94;5062565;28;20007;-54
2021/08/28 07:11:40;;;;;;;;;;;;;;;15.89;94.58;101916.44;5061776;28;19925;-53
2021/08/28 07:14:06;;;;;;;;;;;;;;;16.01;94.27;101923.53;5045521;28;20428;-54
2021/08/28 07:16:33;;;;;;;;;;;;;;;16.08;94.37;101910.66;5064044;28;20514;-50
2021/08/28 07:18:59;;;;;;;;;;;;;;;16.18;92.40;101918.81;5062171;28;19936;-53
2021/08/28 07:21:26;;;;;;;;;;;;;;;16.14;92.52;101915.53;5062138;28;19932;-52
2021/08/28 07:23:53;;;;;;;;;;;;;;;16.17;92.60;101906.50;5063934;28;20350;-53
2021/08/28 07:26:19;;;;;;;;;;;;;;;16.15;92.19;101914.56;5062137;28;20414;-52
2021/08/28 07:28:46;;;;;;;;;;;;;;;16.22;92.12;101914.97;5062886;28;20422;-54
2021/08/28 07:31:13;;;;;;;;;;;;;;;16.19;91.69;101917.84;5061530;28;19928;-53
2021/08/28 07:33:39;;;;;;;;;;;;;;;16.26;92.30;101919.09;5066006;28;20396;-54
2021/08/28 07:36:06;;;;;;;;;;;;;;;16.38;92.09;101912.91;5053566;28;19929;-53
2021/08/28 07:38:32;;;;;;;;;;;;;;;16.34;92.19;101916.72;5053437;28;19929;-53
2021/08/28 07:40:59;;;;;;;;;;;;;;;16.48;91.88;101923.69;5053462;28;19924;-54
2021/08/28 07:43:26;;;;;;;;;;;;;;;16.49;90.45;101922.72;5045371;28;19982;-53
2021/08/28 07:45:52;;;;;;;;;;;;;;;16.53;89.89;101918.88;5060382;28;19924;-51
2021/08/28 07:48:19;;;;;;;;;;;;;;;16.62;90.36;101919.16;5061605;28;20768;-54
2021/08/28 07:50:46;;;;;;;;;;;;;;;16.76;89.82;101921.66;5066971;28;19970;-53
2021/08/28 07:53:12;;;;;;;;;;;;;;;16.83;89.24;101917.59;5042703;28;19932;-53
2021/08/28 07:55:39;;;;;;;;;;;;;;;16.88;88.06;101920.75;5062769;28;20477;-52
2021/08/28 07:58:06;;;;;;;;;;;;;;;16.93;88.31;101928.38;5049437;28;19924;-54
2021/08/28 08:00:32;;;;;;;;;;;;;;;17.03;88.60;101923.25;5043827;28;19978;-53
2021/08/28 08:02:59;;;;;;;;;;;;;;;16.98;87.80;101933.38;5044953;28;20354;-54
2021/08/28 08:05:26;;;;;;;;;;;;;;;17.05;86.43;101921.31;5058814;28;20609;-51
2021/08/28 08:07:53;;;;;;;;;;;;;;;17.22;87.17;101928.03;5062823;28;19924;-51
2021/08/28 08:10:19;;;;;;;;;;;;;;;17.36;87.14;101925.13;5061654;28;19935;-54
2021/08/28 08:12:46;;;;;;;;;;;;;;;17.47;85.46;101931.44;5059745;28;19932;-52
2021/08/28 08:15:13;;;;;;;;;;;;;;;17.46;85.29;101935.91;5060978;28;19931;-53
2021/08/28 08:17:39;;;;;;;;;;;;;;;17.49;84.90;101934.81;5061962;28;19928;-51
2021/08/28 08:20:10;;;;;;;;;;;;;;;17.55;84.50;101940.50;5061673;28;19956;-56
2021/08/28 08:22:37;;;;;;;;;;;;;;;17.65;84.52;101935.31;5063212;28;19947;-55
2021/08/28 08:25:04;;;;;;;;;;;;;;;17.75;83.49;101935.44;5061861;28;19924;-53
2021/08/28 08:27:30;;;;;;;;;;;;;;;17.83;82.73;101941.03;5061398;28;19929;-54
2021/08/28 08:29:57;;;;;;;;;;;;;;;17.90;82.41;101944.88;5059424;28;20011;-53
2021/08/28 08:32:23;;;;;;;;;;;;;;;17.97;82.69;101939.97;5062496;28;19924;-52
2021/08/28 08:34:53;;;;;;;;;;;;;;;18.14;81.46;101938.59;5064809;28;20372;-54
2021/08/28 08:37:20;;;;;;;;;;;;;;;18.20;79.97;101940.78;5059659;28;19928;-53
2021/08/28 08:39:46;;;;;;;;;;;;;;;18.33;79.87;101942.47;5060400;28;19925;-54
2021/08/28 08:42:13;;;;;;;;;;;;;;;18.34;79.68;101950.31;5060387;28;19968;-54
2021/08/28 08:44:40;;;;;;;;;;;;;;;18.40;78.71;101946.31;5044187;28;19928;-53
2021/08/28 08:47:07;;;;;;;;;;;;;;;18.41;79.83;101940.84;5062052;28;19932;-54
2021/08/28 08:49:33;;;;;;;;;;;;;;;18.59;78.68;101946.50;5055513;28;20283;-54
2021/08/28 08:52:00;;;;;;;;;;;;;;;18.65;76.72;101950.50;5045492;28;20330;-53
2021/08/28 08:54:27;;;;;;;;;;;;;;;18.70;77.08;101948.28;5061947;28;19924;-53
2021/08/28 08:56:56;;;;;;;;;;;;;;;18.52;76.22;101949.78;5042728;28;19924;-53
2021/08/28 08:59:23;;;;;;;;;;;;;;;18.59;76.79;101946.50;5057763;28;19924;-55
2021/08/28 09:01:49;;;;;;;;;;;;;;;18.78;75.46;101944.97;5050601;28;19925;-54
2021/08/28 09:04:16;;;;;;;;;;;;;;;18.80;75.96;101951.03;5051660;28;19940;-55
2021/08/28 09:06:46;;;;;;;;;;;;;;;18.67;75.39;101955.69;5051690;28;19994;-47
2021/08/28 09:09:17;;;;;;;;;;;;;;;18.71;74.89;101947.31;5060736;28;19932;-50
2021/08/28 09:12:00;;;;;;;;;;;;;;;18.89;75.55;101946.78;5063927;28;19929;-48
2021/08/28 09:14:26;;;;;;;;;;;;;;;18.88;74.61;101945.94;5061645;28;20822;-44
2021/08/28 09:16:53;;;;;;;;;;;;;;;18.97;74.80;101948.81;5059295;28;19932;-48
2021/08/28 09:19:40;;;;;;;;;;;;;;;19.10;72.50;101949.47;5058795;28;19934;-44
2021/08/28 09:22:08;;;;;;;;;;;;;;;19.09;72.01;101953.13;5059704;28;19933;-47
2021/08/28 09:24:41;;;;;;;;;;;;;;;19.17;70.80;101952.47;5063814;28;19998;-47
2021/08/28 09:27:07;;;;;;;;;;;;;;;19.11;70.43;101945.00;5059517;28;19933;-44
2021/08/28 09:29:50;;;;;;;;;;;;;;;19.14;69.80;101944.72;5068242;28;19924;-45
2021/08/28 09:32:17;;;;;;;;;;;;;;;19.08;70.64;101941.59;5085876;28;19931;-45
2021/08/28 09:34:43;;;;;;;;;;;;;;;19.28;69.97;101954.22;5093087;28;19924;-50
2021/08/28 09:37:11;;;;;;;;;;;;;;;19.21;69.33;101949.41;5073227;28;19924;-45
2021/08/28 09:39:44;;;;;;;;;;;;;;;19.15;69.37;101957.09;5072807;28;19974;-54
2021/08/28 09:42:12;;;;;;;;;;;;;;;19.42;70.46;101959.22;5072459;28;20547;-54
2021/08/28 09:44:42;;;;;;;;;;;;;;;19.48;69.68;101949.84;5075377;28;19924;-54
2021/08/28 09:47:13;;;;;;;;;;;;;;;19.42;68.69;101965.41;5091324;28;19928;-55
2021/08/28 09:49:41;;;;;;;;;;;;;;;19.48;69.38;101957.84;5071999;28;19931;-55
2021/08/28 09:52:12;;;;;;;;;;;;;;;19.54;69.17;101958.19;5054876;28;20448;-53
2021/08/28 09:54:39;;;;;;;;;;;;;;;19.65;68.42;101959.09;5054845;28;19924;-52
2021/08/28 09:57:05;;;;;;;;;;;;;;;19.92;68.12;101958.53;5072444;28;19928;-55
2021/08/28 09:59:32;;;;;;;;;;;;;;;20.07;67.75;101951.00;5072355;28;19924;-51
2021/08/28 10:02:06;;;;;;;;;;;;;;;20.20;67.45;101950.75;5054771;28;19924;-53
2021/08/28 10:04:49;;;;;;;;;;;;;;;20.62;66.96;101945.19;5072540;28;19951;-54
2021/08/28 10:07:29;;;;;;;;;;;;;;;20.86;66.23;101944.81;5038337;28;20349;-52
2021/08/28 10:09:57;;;;;;;;;;;;;;;20.91;64.74;101947.94;5038076;28;20408;-52
2021/08/28 10:12:32;;;;;;;;;;;;;;;20.95;62.73;101943.13;5072414;28;19967;-56
2021/08/28 10:14:59;;;;;;;;;;;;;;;20.85;61.27;101944.97;5072563;28;19986;-55
2021/08/28 10:17:27;;;;;;;;;;;;;;;20.80;61.48;101948.06;5054607;28;19924;-54
2021/08/28 10:19:55;;;;;;;;;;;;;;;20.90;61.86;101951.59;5054616;28;19947;-54
2021/08/28 10:22:22;;;;;;;;;;;;;;;20.91;62.03;101947.06;5054654;28;19931;-54
2021/08/28 10:24:51;;;;;;;;;;;;;;;20.94;58.69;101957.47;5071880;28;20037;-54
2021/08/28 10:27:18;;;;;;;;;;;;;;;20.92;58.06;101946.91;5072009;28;20357;-47
2021/08/28 10:29:47;;;;;;;;;;;;;;;20.84;58.91;101956.66;5054820;28;19925;-47
2021/08/28 10:32:14;;;;;;;;;;;;;;;21.03;59.28;101958.47;5071756;28;19932;-48
2021/08/28 10:34:41;;;;;;;;;;;;;;;20.92;58.76;101960.28;5073997;28;19924;-48
2021/08/28 10:37:07;;;;;;;;;;;;;;;20.81;59.95;101956.94;5073667;28;19937;-51
2021/08/28 10:39:34;;;;;;;;;;;;;;;21.01;59.98;101961.28;5066885;28;20006;-50
2021/08/28 10:42:01;;;;;;;;;;;;;;;21.16;59.79;101968.84;5054218;28;19928;-47
2021/08/28 10:44:28;;;;;;;;;;;;;;;20.98;57.65;101958.03;5070917;28;20031;-46
2021/08/28 10:46:55;;;;;;;;;;;;;;;21.08;57.36;101965.06;5072083;28;20276;-44
2021/08/28 10:49:22;;;;;;;;;;;;;;;21.16;57.45;101959.03;5071867;28;20042;-44
2021/08/28 10:51:53;;;;;;;;;;;;;;;21.45;57.67;101950.09;5054022;28;19929;-47
2021/08/28 10:54:22;;;;;;;;;;;;;;;21.36;56.68;101958.97;5072394;28;20380;-45
2021/08/28 10:56:53;;;;;;;;;;;;;;;21.40;56.99;101953.19;5054068;28;20338;-46
2021/08/28 10:59:21;;;;;;;;;;;;;;;21.49;56.31;101966.69;5072478;28;19982;-45
2021/08/28 11:01:52;;;;;;;;;;;;;;;21.24;55.94;101959.16;5075204;28;19924;-50
2021/08/28 11:04:33;;;;;;;;;;;;;;;21.18;56.07;101961.56;5074493;28;19932;-45
2021/08/28 11:07:15;;;;;;;;;;;;;;;21.20;55.90;101952.41;5074411;28;19974;-51
2021/08/28 11:10:01;;;;;;;;;;;;;;;21.33;56.94;101957.44;5075656;28;19924;-50
2021/08/28 11:12:28;;;;;;;;;;;;;;;21.18;56.11;101958.88;5075255;28;19924;-50
2021/08/28 11:14:54;;;;;;;;;;;;;;;21.20;55.68;101959.56;5074245;28;19924;-47
2021/08/28 11:17:39;;;;;;;;;;;;;;;21.28;56.91;101959.69;5075495;28;19970;-48
2021/08/28 11:20:06;;;;;;;;;;;;;;;21.59;56.80;101954.16;5074400;28;20406;-50
2021/08/28 11:22:34;;;;;;;;;;;;;;;21.77;57.14;101955.09;5075391;28;19925;-49
2021/08/28 11:25:00;;;;;;;;;;;;;;;21.61;57.36;101955.72;5070283;28;19924;-49
2021/08/28 11:27:40;;;;;;;;;;;;;;;21.65;58.06;101956.28;5059628;28;19936;-48
2021/08/28 11:30:10;;;;;;;;;;;;;;;21.44;56.45;101956.44;5057874;28;19978;-50
2021/08/28 11:32:53;;;;;;;;;;;;;;;21.67;56.13;101953.44;5075066;28;19935;-48
2021/08/28 11:35:20;;;;;;;;;;;;;;;21.76;55.87;101948.06;5057677;28;20011;-49
2021/08/28 11:37:46;;;;;;;;;;;;;;;21.74;54.56;101952.69;5057369;28;19924;-50
2021/08/28 11:40:23;;;;;;;;;;;;;;;21.49;54.89;101954.16;5074920;28;19924;-50
2021/08/28 11:42:50;;;;;;;;;;;;;;;21.54;55.08;101949.25;5075589;28;20318;-50
2021/08/28 11:45:17;;;;;;;;;;;;;;;21.60;55.88;101947.81;5074846;28;19924;-52
2021/08/28 11:47:45;;;;;;;;;;;;;;;21.72;55.66;101946.66;5074786;28;19960;-49
2021/08/28 11:50:12;;;;;;;;;;;;;;;21.82;55.12;101943.09;5056888;28;20363;-48
2021/08/28 11:52:39;;;;;;;;;;;;;;;21.74;56.11;101950.00;5057157;28;20395;-51
2021/08/28 11:55:07;;;;;;;;;;;;;;;21.34;56.92;101948.44;5057317;28;19932;-50
2021/08/28 11:57:35;;;;;;;;;;;;;;;21.54;56.97;101956.44;5069319;28;19925;-48
2021/08/28 12:00:03;;;;;;;;;;;;;;;21.35;56.03;101949.25;5054892;28;19924;-49
2021/08/28 12:02:30;;;;;;;;;;;;;;;21.50;56.74;101955.00;5068684;28;19924;-52
2021/08/28 12:05:06;;;;;;;;;;;;;;;21.71;56.38;101955.66;5069371;28;19965;-49
2021/08/28 12:07:32;;;;;;;;;;;;;;;22.29;55.90;101961.72;5094594;28;19978;-46
2021/08/28 12:09:59;;;;;;;;;;;;;;;22.30;54.84;101958.06;5094567;28;19924;-52
2021/08/28 12:12:25;;;;;;;;;;;;;;;22.08;54.82;101959.31;5093748;28;20256;-50
2021/08/28 12:14:53;;;;;;;;;;;;;;;22.20;55.13;101958.13;5094582;28;19931;-51
2021/08/28 12:17:29;;;;;;;;;;;;;;;22.27;55.00;101961.03;5094645;28;19969;-49
2021/08/28 12:19:59;;;;;;;;;;;;;;;22.12;54.76;101947.31;5052455;28;20394;-50
2021/08/28 12:22:26;;;;;;;;;;;;;;;21.96;55.05;101972.06;5058006;28;19931;-50
2021/08/28 12:24:55;;;;;;;;;;;;;;;21.72;53.64;101956.50;5072638;28;20334;-47
2021/08/28 12:27:22;;;;;;;;;;;;;;;21.68;54.13;101960.47;5059679;28;19931;-50
2021/08/28 12:29:52;;;;;;;;;;;;;;;21.41;55.54;101957.56;5058969;28;20461;-46
2021/08/28 12:32:19;;;;;;;;;;;;;;;21.58;54.71;101971.19;5079630;28;19928;-51
2021/08/28 12:34:50;;;;;;;;;;;;;;;21.69;54.71;101972.88;5070021;28;19928;-48
2021/08/28 12:37:17;;;;;;;;;;;;;;;21.83;54.67;101969.72;5061309;28;19933;-46
2021/08/28 12:39:55;;;;;;;;;;;;;;;21.78;54.48;101959.44;5063836;28;19925;-50